createdAt,value
2023-03-25T00:01:49.667Z,9.00
2023-03-25T00:04:18.450Z,9.00
2023-03-25T00:06:46.855Z,8.90
2023-03-25T00:09:14.633Z,9.00
2023-03-25T00:11:42.408Z,9.00
2023-03-25T00:14:12.204Z,9.10
2023-03-25T00:16:40.144Z,9.10
2023-03-25T00:19:09.196Z,9.10
2023-03-25T00:21:37.404Z,9.10
2023-03-25T00:24:05.542Z,9.00
2023-03-25T00:26:33.350Z,9.00
2023-03-25T00:29:01.136Z,9.10
2023-03-25T00:31:30.270Z,9.00
2023-03-25T00:33:59.662Z,9.10
2023-03-25T00:36:27.496Z,9.10
2023-03-25T00:38:55.296Z,9.10
2023-03-25T00:41:25.315Z,9.10
2023-03-25T00:43:54.833Z,9.20
2023-03-25T00:46:23.996Z,9.30
2023-03-25T00:48:53.292Z,9.40
2023-03-25T00:51:22.241Z,9.40
2023-03-25T00:53:53.211Z,9.40
2023-03-25T00:56:21.234Z,9.50
2023-03-25T00:58:49.136Z,9.50
2023-03-25T01:01:23.224Z,9.50
2023-03-25T01:03:57.593Z,9.50
2023-03-25T01:06:28.738Z,9.50
2023-03-25T01:08:58.197Z,9.50
2023-03-25T01:11:28.454Z,9.60
2023-03-25T01:13:57.500Z,9.60
2023-03-25T01:16:25.390Z,9.60
2023-03-25T01:18:55.420Z,9.60
2023-03-25T01:21:23.703Z,9.60
2023-03-25T01:23:51.621Z,9.70
2023-03-25T01:26:19.586Z,9.80
2023-03-25T01:28:47.468Z,9.80
2023-03-25T01:31:16.242Z,9.80
2023-03-25T01:33:44.107Z,9.80
2023-03-25T01:36:14.368Z,9.70
2023-03-25T01:38:43.130Z,9.70
2023-03-25T01:41:12.035Z,9.70
2023-03-25T01:43:39.890Z,9.80
2023-03-25T01:46:09.442Z,9.80
2023-03-25T01:48:40.996Z,9.80
2023-03-25T01:51:15.525Z,9.80
2023-03-25T01:53:44.347Z,9.70
2023-03-25T01:56:15.370Z,9.80
2023-03-25T01:58:44.653Z,9.70
2023-03-25T02:01:14.771Z,9.70
2023-03-25T02:03:46.536Z,9.70
2023-03-25T02:06:20.619Z,9.70
2023-03-25T02:08:49.073Z,9.80
2023-03-25T02:11:17.512Z,9.70
2023-03-25T02:13:45.501Z,9.80
2023-03-25T02:16:27.982Z,9.70
2023-03-25T02:19:10.580Z,9.70
2023-03-25T02:22:00.025Z,9.70
2023-03-25T02:24:57.792Z,9.60
2023-03-25T02:27:41.860Z,9.60
2023-03-25T02:30:42.161Z,9.60
2023-03-25T02:33:35.891Z,9.50
2023-03-25T02:36:41.335Z,9.60
2023-03-25T02:39:15.902Z,9.50
2023-03-25T02:41:49.902Z,9.30
2023-03-25T02:44:26.130Z,9.30
2023-03-25T02:46:58.414Z,9.30
2023-03-25T02:49:30.539Z,9.30
2023-03-25T02:52:02.703Z,9.20
2023-03-25T02:54:34.336Z,9.20
2023-03-25T02:57:03.563Z,9.20
2023-03-25T02:59:33.551Z,9.20
2023-03-25T03:02:04.103Z,9.10
2023-03-25T03:04:31.903Z,9.20
2023-03-25T03:07:01.005Z,9.20
2023-03-25T03:09:38.724Z,9.20
2023-03-25T03:12:19.427Z,9.20
2023-03-25T03:15:01.746Z,9.20
2023-03-25T03:17:39.057Z,9.20
2023-03-25T03:20:17.947Z,9.20
2023-03-25T03:22:52.506Z,9.10
2023-03-25T03:25:30.845Z,9.10
2023-03-25T03:28:04.599Z,9.00
2023-03-25T03:30:38.322Z,9.00
2023-03-25T03:33:13.364Z,8.90
2023-03-25T03:35:50.328Z,9.00
2023-03-25T03:38:21.746Z,8.90
2023-03-25T03:40:54.492Z,8.80
2023-03-25T03:43:28.708Z,8.80
2023-03-25T03:46:00.333Z,8.80
2023-03-25T03:48:32.846Z,8.70
2023-03-25T03:51:08.009Z,8.70
2023-03-25T03:53:39.714Z,8.70
2023-03-25T03:56:13.034Z,8.60
2023-03-25T03:58:42.944Z,8.50
2023-03-25T04:01:15.335Z,8.50
2023-03-25T04:03:48.584Z,8.40
2023-03-25T04:06:24.862Z,8.40
2023-03-25T04:08:59.659Z,8.30
2023-03-25T04:11:34.151Z,8.40
2023-03-25T04:14:03.914Z,8.30
2023-03-25T04:16:34.682Z,8.40
2023-03-25T04:19:04.249Z,8.40
2023-03-25T04:21:32.398Z,8.20
2023-03-25T04:24:01.429Z,8.20
2023-03-25T04:26:34.066Z,8.30
2023-03-25T04:29:02.504Z,8.30
2023-03-25T04:31:33.635Z,8.20
2023-03-25T04:34:02.228Z,8.30
2023-03-25T04:36:33.495Z,8.30
2023-03-25T04:39:01.292Z,8.30
2023-03-25T04:41:31.934Z,8.30
2023-03-25T04:43:59.808Z,8.30
2023-03-25T04:46:27.669Z,8.30
2023-03-25T04:48:56.869Z,8.30
2023-03-25T04:51:24.867Z,8.30
2023-03-25T04:53:52.698Z,8.40
2023-03-25T04:56:20.910Z,8.40
2023-03-25T04:58:50.305Z,8.40
2023-03-25T05:01:23.949Z,8.30
2023-03-25T05:03:51.845Z,8.40
2023-03-25T05:06:19.590Z,8.40
2023-03-25T05:08:47.389Z,8.40
2023-03-25T05:11:15.460Z,8.50
2023-03-25T05:13:43.230Z,8.40
2023-03-25T05:16:12.391Z,8.40
2023-03-25T05:18:40.196Z,8.40
2023-03-25T05:21:08.733Z,8.30
2023-03-25T05:23:36.516Z,8.40
2023-03-25T05:26:05.163Z,8.50
2023-03-25T05:28:33.705Z,8.60
2023-03-25T05:31:01.472Z,8.60
2023-03-25T05:33:30.689Z,8.60
2023-03-25T05:35:59.107Z,8.70
2023-03-25T05:38:27.008Z,8.80
2023-03-25T05:40:54.945Z,8.80
2023-03-25T05:43:22.973Z,8.80
2023-03-25T05:45:51.361Z,8.80
2023-03-25T05:48:19.349Z,8.90
2023-03-25T05:50:48.461Z,9.00
2023-03-25T05:53:16.567Z,9.00
2023-03-25T05:55:44.450Z,8.90
2023-03-25T05:58:12.263Z,8.90
2023-03-25T06:00:40.098Z,8.90
2023-03-25T06:03:08.963Z,9.00
2023-03-25T06:05:39.466Z,9.10
2023-03-25T06:08:08.743Z,9.00
2023-03-25T06:10:36.658Z,8.90
2023-03-25T06:13:04.472Z,8.90
2023-03-25T06:15:33.919Z,8.80
2023-03-25T06:18:02.213Z,8.80
2023-03-25T06:20:29.986Z,8.80
2023-03-25T06:22:57.856Z,8.90
2023-03-25T06:25:28.388Z,8.80
2023-03-25T06:27:58.520Z,8.80
2023-03-25T06:30:26.417Z,8.70
2023-03-25T06:32:55.625Z,8.80
2023-03-25T06:35:23.672Z,8.90
2023-03-25T06:37:51.456Z,8.80
2023-03-25T06:40:20.082Z,8.60
2023-03-25T06:42:49.259Z,8.70
2023-03-25T06:45:17.195Z,8.70
2023-03-25T06:47:45.016Z,8.70
2023-03-25T06:50:12.884Z,8.70
2023-03-25T06:52:40.701Z,8.70
2023-03-25T06:55:09.559Z,8.70
2023-03-25T06:57:37.761Z,8.50
2023-03-25T07:00:09.517Z,8.40
2023-03-25T07:02:37.330Z,8.40
2023-03-25T07:05:06.229Z,8.50
2023-03-25T07:07:34.203Z,8.50
2023-03-25T07:10:02.359Z,8.60
2023-03-25T07:12:30.156Z,8.50
2023-03-25T07:14:58.967Z,8.60
2023-03-25T07:17:28.412Z,8.30
2023-03-25T07:19:56.199Z,8.50
2023-03-25T07:22:24.195Z,8.40
2023-03-25T07:24:52.162Z,8.40
2023-03-25T07:27:20.373Z,8.60
2023-03-25T07:29:48.202Z,8.60
2023-03-25T07:32:16.006Z,8.60
2023-03-25T07:34:45.396Z,8.60
2023-03-25T07:37:13.176Z,8.60
2023-03-25T07:39:41.112Z,8.50
2023-03-25T07:42:08.965Z,8.50
2023-03-25T07:44:36.732Z,8.40
2023-03-25T07:47:04.671Z,8.40
2023-03-25T07:49:32.452Z,8.10
2023-03-25T07:52:01.600Z,8.60
2023-03-25T07:54:29.435Z,9.00
2023-03-25T07:56:57.466Z,8.90
2023-03-25T07:59:26.552Z,8.90
2023-03-25T08:01:55.952Z,8.80
2023-03-25T08:04:23.794Z,8.70
2023-03-25T08:06:51.653Z,8.60
2023-03-25T08:09:20.925Z,8.60
2023-03-25T08:11:49.529Z,8.80
2023-03-25T08:14:17.300Z,8.80
2023-03-25T08:16:45.264Z,8.70
2023-03-25T08:19:13.189Z,8.70
2023-03-25T08:21:41.137Z,8.80
2023-03-25T08:24:09.307Z,8.90
2023-03-25T08:26:38.886Z,9.00
2023-03-25T08:29:07.536Z,9.20
2023-03-25T08:31:38.480Z,9.30
2023-03-25T08:34:07.171Z,9.50
2023-03-25T08:36:39.227Z,9.60
2023-03-25T08:39:11.414Z,9.60
2023-03-25T08:41:40.908Z,9.70
2023-03-25T08:44:09.277Z,9.50
2023-03-25T08:46:37.591Z,10.00
2023-03-25T08:49:06.324Z,10.20
2023-03-25T08:51:34.123Z,10.10
2023-03-25T08:54:01.974Z,10.10
2023-03-25T08:56:29.969Z,10.20
2023-03-25T08:58:59.151Z,10.10
2023-03-25T09:01:26.968Z,10.10
2023-03-25T09:03:55.769Z,10.10
2023-03-25T09:06:23.591Z,10.00
2023-03-25T09:08:52.214Z,9.80
2023-03-25T09:11:34.068Z,9.80
2023-03-25T09:14:06.171Z,9.60
2023-03-25T09:16:34.959Z,9.90
2023-03-25T09:19:03.202Z,10.00
2023-03-25T09:21:31.093Z,9.90
2023-03-25T09:23:58.951Z,9.90
2023-03-25T09:26:27.057Z,10.10
2023-03-25T09:28:56.247Z,10.30
2023-03-25T09:31:26.209Z,10.40
2023-03-25T09:33:54.101Z,10.60
2023-03-25T09:36:21.929Z,10.60
2023-03-25T09:38:49.912Z,10.30
2023-03-25T09:41:35.257Z,10.50
2023-03-25T09:44:14.473Z,10.60
2023-03-25T09:46:45.284Z,10.30
2023-03-25T09:49:17.937Z,10.10
2023-03-25T09:51:47.940Z,10.50
2023-03-25T09:54:23.281Z,10.80
2023-03-25T09:56:52.524Z,10.70
2023-03-25T09:59:23.226Z,10.90
2023-03-25T10:02:00.375Z,10.90
2023-03-25T10:04:54.538Z,11.00
2023-03-25T10:07:36.928Z,11.00
2023-03-25T10:10:13.297Z,11.00
2023-03-25T10:12:48.240Z,11.20
2023-03-25T10:15:27.469Z,11.50
2023-03-25T10:18:08.547Z,11.70
2023-03-25T10:20:48.017Z,11.80
2023-03-25T10:23:24.831Z,12.20
2023-03-25T10:25:57.396Z,12.10
2023-03-25T10:28:31.155Z,12.00
2023-03-25T10:31:00.120Z,12.00
2023-03-25T10:33:36.810Z,11.90
2023-03-25T10:36:08.464Z,12.00
2023-03-25T10:38:39.256Z,11.80
2023-03-25T10:41:25.530Z,11.70
2023-03-25T10:43:53.797Z,11.60
2023-03-25T10:46:28.856Z,11.40
2023-03-25T10:48:58.448Z,11.30
2023-03-25T10:51:29.792Z,11.10
2023-03-25T10:53:58.651Z,10.90
2023-03-25T10:56:31.229Z,11.30
2023-03-25T10:59:01.859Z,11.40
2023-03-25T11:01:37.733Z,11.70
2023-03-25T11:04:10.338Z,11.90
2023-03-25T11:06:40.779Z,11.90
2023-03-25T11:09:19.302Z,11.60
2023-03-25T11:11:48.313Z,11.60
2023-03-25T11:14:16.549Z,11.50
2023-03-25T11:16:47.314Z,11.50
2023-03-25T11:19:21.922Z,11.60
2023-03-25T11:21:55.408Z,11.50
2023-03-25T11:24:28.633Z,11.50
2023-03-25T11:26:56.995Z,11.60
2023-03-25T11:29:27.181Z,11.30
2023-03-25T11:32:06.573Z,11.40
2023-03-25T11:34:41.819Z,11.60
2023-03-25T11:37:18.027Z,11.60
2023-03-25T11:39:50.931Z,11.40
2023-03-25T11:42:30.240Z,11.40
2023-03-25T11:44:59.562Z,11.50
2023-03-25T11:47:31.771Z,11.60
2023-03-25T11:50:02.119Z,11.90
2023-03-25T11:52:38.002Z,11.80
2023-03-25T11:55:06.679Z,11.70
2023-03-25T11:57:39.784Z,11.40
2023-03-25T12:00:18.119Z,11.60
2023-03-25T12:02:46.235Z,11.70
2023-03-25T12:05:17.235Z,11.60
2023-03-25T12:07:47.402Z,11.50
2023-03-25T12:10:21.512Z,11.40
2023-03-25T12:12:58.328Z,11.60
2023-03-25T12:15:40.781Z,12.00
2023-03-25T12:18:36.352Z,12.20
2023-03-25T12:21:14.244Z,12.40
2023-03-25T12:23:51.677Z,12.00
2023-03-25T12:26:27.004Z,11.90
2023-03-25T12:29:09.246Z,11.80
2023-03-25T12:31:51.182Z,11.60
2023-03-25T12:34:27.312Z,11.60
2023-03-25T12:37:06.809Z,11.20
2023-03-25T12:39:47.226Z,11.30
2023-03-25T12:42:29.200Z,11.70
2023-03-25T12:45:13.774Z,11.60
2023-03-25T12:47:44.029Z,11.70
2023-03-25T12:50:35.382Z,11.60
2023-03-25T12:53:19.922Z,11.70
2023-03-25T12:55:57.597Z,11.50
2023-03-25T12:58:49.709Z,11.80
2023-03-25T13:01:25.214Z,11.60
2023-03-25T13:04:29.736Z,12.00
2023-03-25T13:07:04.220Z,12.40
2023-03-25T13:09:38.033Z,12.30
2023-03-25T13:12:12.152Z,11.90
2023-03-25T13:14:45.917Z,11.80
2023-03-25T13:17:21.258Z,11.70
2023-03-25T13:19:49.519Z,11.60
2023-03-25T13:22:23.926Z,11.70
2023-03-25T13:24:58.955Z,11.70
2023-03-25T13:27:32.143Z,11.70
2023-03-25T13:30:01.226Z,12.00
2023-03-25T13:32:34.277Z,12.00
2023-03-25T13:35:06.133Z,11.90
2023-03-25T13:37:38.910Z,11.90
2023-03-25T13:40:24.330Z,11.90
2023-03-25T13:42:59.022Z,11.90
2023-03-25T13:45:30.234Z,11.80
2023-03-25T13:48:06.922Z,12.00
2023-03-25T13:50:36.459Z,12.00
2023-03-25T13:53:09.000Z,12.00
2023-03-25T13:55:41.407Z,12.10
2023-03-25T13:58:28.680Z,12.20
2023-03-25T14:01:20.797Z,12.20
2023-03-25T14:04:05.486Z,12.30
2023-03-25T14:06:52.709Z,12.20
2023-03-25T14:10:04.849Z,12.10
2023-03-25T14:12:38.250Z,12.10
2023-03-25T14:15:11.317Z,11.80
2023-03-25T14:17:41.809Z,11.80
2023-03-25T14:20:13.167Z,11.50
2023-03-25T14:22:44.106Z,11.60
2023-03-25T14:25:22.180Z,11.60
2023-03-25T14:27:52.467Z,11.70
2023-03-25T14:30:22.722Z,11.80
2023-03-25T14:32:51.838Z,11.80
2023-03-25T14:35:47.128Z,12.00
2023-03-25T14:38:49.161Z,12.10
2023-03-25T14:41:17.273Z,11.90
2023-03-25T14:43:53.033Z,11.70
2023-03-25T14:46:23.916Z,11.50
2023-03-25T14:48:54.890Z,11.40
2023-03-25T14:51:43.069Z,11.50
2023-03-25T14:54:24.031Z,11.50
2023-03-25T14:57:00.228Z,11.70
2023-03-25T14:59:32.442Z,12.00
2023-03-25T15:02:15.071Z,11.90
2023-03-25T15:04:43.085Z,12.30
2023-03-25T15:07:17.077Z,12.00
2023-03-25T15:09:50.939Z,12.20
2023-03-25T15:12:22.500Z,12.30
2023-03-25T15:14:57.038Z,12.30
2023-03-25T15:17:44.534Z,12.20
2023-03-25T15:20:31.541Z,12.20
2023-03-25T15:23:45.405Z,12.40
2023-03-25T15:26:17.713Z,12.70
2023-03-25T15:29:05.243Z,12.70
2023-03-25T15:31:48.100Z,12.70
2023-03-25T15:34:41.276Z,12.70
2023-03-25T15:37:45.129Z,13.00
2023-03-25T15:40:26.473Z,13.30
2023-03-25T15:43:11.854Z,13.20
2023-03-25T15:46:13.857Z,12.80
2023-03-25T15:49:09.166Z,12.20
2023-03-25T15:51:52.475Z,11.80
2023-03-25T15:54:30.902Z,11.50
2023-03-25T15:57:02.750Z,11.30
2023-03-25T15:59:38.502Z,11.20
2023-03-25T16:02:17.876Z,11.30
2023-03-25T16:04:50.463Z,11.60
2023-03-25T16:07:21.434Z,11.70
2023-03-25T16:09:50.167Z,11.80
2023-03-25T16:12:23.105Z,12.00
2023-03-25T16:14:51.915Z,12.00
2023-03-25T16:17:22.442Z,12.00
2023-03-25T16:19:54.946Z,11.50
2023-03-25T16:22:27.688Z,11.40
2023-03-25T16:24:57.943Z,11.30
2023-03-25T16:27:27.826Z,11.30
2023-03-25T16:29:56.725Z,11.30
2023-03-25T16:32:27.001Z,11.20
2023-03-25T16:34:56.312Z,11.00
2023-03-25T16:37:25.127Z,11.00
2023-03-25T16:39:54.303Z,10.80
2023-03-25T16:42:27.335Z,10.80
2023-03-25T16:44:55.525Z,10.80
2023-03-25T16:47:23.935Z,10.80
2023-03-25T16:49:54.459Z,10.90
2023-03-25T16:52:27.914Z,11.00
2023-03-25T16:55:31.568Z,11.10
2023-03-25T16:58:02.042Z,11.10
2023-03-25T17:00:41.734Z,11.20
2023-03-25T17:03:17.483Z,11.20
2023-03-25T17:06:00.807Z,11.10
2023-03-25T17:08:31.128Z,11.00
2023-03-25T17:11:01.348Z,10.80
2023-03-25T17:13:32.854Z,10.80
2023-03-25T17:16:01.047Z,10.60
2023-03-25T17:18:32.419Z,10.70
2023-03-25T17:21:01.829Z,10.40
2023-03-25T17:23:37.291Z,10.30
2023-03-25T17:26:08.991Z,10.20
2023-03-25T17:28:39.008Z,10.20
2023-03-25T17:31:25.677Z,10.10
2023-03-25T17:33:58.760Z,10.10
2023-03-25T17:36:27.362Z,10.00
2023-03-25T17:38:57.928Z,9.80
2023-03-25T17:41:30.097Z,9.90
2023-03-25T17:43:58.533Z,9.80
2023-03-25T17:46:29.092Z,9.60
2023-03-25T17:48:58.028Z,9.60
2023-03-25T17:51:27.634Z,9.60
2023-03-25T17:53:57.222Z,9.50
2023-03-25T17:56:27.936Z,9.50
2023-03-25T17:59:00.364Z,9.30
2023-03-25T18:01:30.654Z,9.30
2023-03-25T18:03:58.919Z,9.20
2023-03-25T18:06:26.840Z,9.10
2023-03-25T18:08:56.012Z,9.10
2023-03-25T18:11:23.874Z,9.10
2023-03-25T18:13:51.999Z,9.10
2023-03-25T18:16:21.976Z,9.10
2023-03-25T18:18:50.349Z,9.10
2023-03-25T18:21:19.993Z,9.10
2023-03-25T18:23:48.888Z,9.10
2023-03-25T18:26:19.754Z,9.10
2023-03-25T18:28:48.639Z,9.10
2023-03-25T18:31:18.347Z,9.00
2023-03-25T18:33:48.203Z,9.00
2023-03-25T18:36:16.516Z,9.00
2023-03-25T18:38:44.581Z,8.90
2023-03-25T18:41:14.267Z,8.90
2023-03-25T18:43:43.967Z,9.00
2023-03-25T18:46:13.800Z,9.00
2023-03-25T18:48:42.530Z,9.00
2023-03-25T18:51:12.884Z,8.90
2023-03-25T18:53:41.557Z,8.90
2023-03-25T18:56:10.334Z,8.90
2023-03-25T18:58:38.419Z,8.80
2023-03-25T19:01:10.150Z,8.70
2023-03-25T19:03:41.165Z,8.80
2023-03-25T19:06:11.574Z,8.70
2023-03-25T19:08:39.874Z,8.60
2023-03-25T19:11:19.991Z,8.60
2023-03-25T19:13:49.590Z,8.70
2023-03-25T19:16:18.873Z,8.60
2023-03-25T19:18:47.354Z,8.50
2023-03-25T19:21:17.179Z,8.50
2023-03-25T19:23:45.085Z,8.50
2023-03-25T19:26:13.289Z,8.60
2023-03-25T19:28:42.165Z,8.60
2023-03-25T19:31:13.115Z,8.50
2023-03-25T19:33:42.411Z,8.50
2023-03-25T19:36:15.131Z,8.40
2023-03-25T19:38:43.135Z,8.40
2023-03-25T19:41:13.516Z,8.50
2023-03-25T19:43:41.635Z,8.40
2023-03-25T19:46:09.585Z,8.40
2023-03-25T19:48:37.502Z,8.40
2023-03-25T19:51:07.206Z,8.40
2023-03-25T19:53:35.370Z,8.30
2023-03-25T19:56:04.318Z,8.30
2023-03-25T19:58:32.544Z,8.30
2023-03-25T20:01:00.469Z,8.30
2023-03-25T20:03:31.081Z,8.30
2023-03-25T20:05:59.385Z,8.30
2023-03-25T20:08:29.849Z,8.20
2023-03-25T20:10:58.074Z,8.20
2023-03-25T20:13:26.468Z,8.30
2023-03-25T20:15:55.006Z,8.30
2023-03-25T20:18:23.156Z,8.30
2023-03-25T20:20:51.123Z,8.40
2023-03-25T20:23:18.913Z,8.20
2023-03-25T20:25:48.123Z,8.20
2023-03-25T20:28:18.289Z,8.10
2023-03-25T20:30:46.251Z,8.20
2023-03-25T20:33:14.107Z,8.20
2023-03-25T20:35:43.734Z,8.20
2023-03-25T20:38:14.102Z,8.20
2023-03-25T20:40:45.085Z,8.20
2023-03-25T20:43:15.088Z,8.20
2023-03-25T20:45:43.628Z,8.20
2023-03-25T20:48:11.625Z,8.20
2023-03-25T20:50:39.479Z,8.20
2023-03-25T20:53:07.273Z,8.20
2023-03-25T20:55:35.615Z,8.20
2023-03-25T20:58:03.853Z,8.20
2023-03-25T21:00:34.027Z,8.30
2023-03-25T21:03:02.092Z,8.40
2023-03-25T21:05:29.991Z,8.40
2023-03-25T21:07:57.773Z,8.40
2023-03-25T21:10:25.680Z,8.40
2023-03-25T21:12:53.517Z,8.30
2023-03-25T21:15:21.980Z,8.30
2023-03-25T21:17:51.135Z,8.30
2023-03-25T21:20:21.894Z,8.40
2023-03-25T21:22:50.810Z,8.30
2023-03-25T21:25:18.988Z,8.30
2023-03-25T21:27:46.884Z,8.30
2023-03-25T21:30:16.110Z,8.30
2023-03-25T21:32:44.016Z,8.40
2023-03-25T21:35:13.716Z,8.30
2023-03-25T21:37:41.480Z,8.20
2023-03-25T21:40:11.807Z,8.30
2023-03-25T21:42:41.174Z,8.20
2023-03-25T21:45:11.416Z,8.20
2023-03-25T21:47:39.258Z,8.20
2023-03-25T21:50:10.387Z,8.20
2023-03-25T21:52:43.356Z,8.20
2023-03-25T21:55:12.518Z,8.20
2023-03-25T21:57:44.240Z,8.20
2023-03-25T22:00:17.116Z,8.20
2023-03-25T22:02:46.228Z,8.10
2023-03-25T22:05:16.059Z,8.10
2023-03-25T22:07:45.683Z,8.10
2023-03-25T22:10:13.529Z,8.10
2023-03-25T22:12:41.444Z,8.10
2023-03-25T22:15:11.257Z,8.00
2023-03-25T22:17:39.085Z,8.00
2023-03-25T22:20:08.819Z,8.00
2023-03-25T22:22:36.779Z,8.00
2023-03-25T22:25:06.853Z,7.90
2023-03-25T22:27:35.530Z,7.90
2023-03-25T22:30:03.516Z,7.90
2023-03-25T22:32:31.386Z,7.90
2023-03-25T22:34:59.136Z,7.80
2023-03-25T22:37:27.033Z,7.80
2023-03-25T22:39:54.969Z,7.90
2023-03-25T22:42:25.638Z,7.90
2023-03-25T22:44:53.508Z,7.80
2023-03-25T22:47:21.391Z,7.80
2023-03-25T22:49:49.199Z,7.70
2023-03-25T22:52:17.021Z,7.80
2023-03-25T22:54:44.808Z,7.80
2023-03-25T22:57:12.678Z,7.90
2023-03-25T22:59:41.912Z,7.90
2023-03-25T23:02:12.015Z,7.80
2023-03-25T23:04:39.827Z,7.80
2023-03-25T23:07:08.832Z,7.70
2023-03-25T23:09:43.649Z,7.70
2023-03-25T23:12:12.734Z,7.80
2023-03-25T23:14:44.143Z,7.70
2023-03-25T23:17:12.533Z,7.70
2023-03-25T23:19:40.356Z,7.70
2023-03-25T23:22:08.719Z,7.60
2023-03-25T23:24:38.028Z,7.50
2023-03-25T23:27:07.045Z,7.50
2023-03-25T23:29:36.330Z,7.50
2023-03-25T23:32:07.075Z,7.40
2023-03-25T23:34:35.516Z,7.50
2023-03-25T23:37:03.917Z,7.50
2023-03-25T23:39:31.852Z,7.50
2023-03-25T23:41:59.636Z,7.70
2023-03-25T23:44:28.281Z,7.80
2023-03-25T23:46:56.180Z,7.80
2023-03-25T23:49:25.342Z,7.80
2023-03-25T23:51:53.152Z,7.90
2023-03-25T23:54:21.182Z,7.90
2023-03-25T23:56:49.091Z,7.90
2023-03-25T23:59:16.919Z,7.90
